Hayfield, Middle Canyon, Santa Catalina Island Weather observations

Data are for 10 minute period ending at time listed.
 Day   Time   Solar   Ave.   Ave.  Ave.  Vector    Max.   Stn.    Total
  of    of     Rad.   Air    Rel.  Wind   Wind     Wind   Baro.  Precip. 
Year   Day            Temp.  Hum.  Speed  Dir.     Gust   Pres.          
2015   (PST)   W/m2    F      %     mph   deg.      mph    mb.     in.   
-------------------------------------------------------------------------
 239    2:00    0.0    61   76.9     1    329.0     2.7    999.0   0.00
 239    2:10    0.0    62   76.2     1    329.3     2.1    999.0   0.00
 239    2:20    0.0    62   76.4     0    328.7     3.2    999.0   0.00
 239    2:30    0.0    61   77.1     1    328.6     3.2    999.0   0.00
 239    2:40    0.0    62   75.6     2    328.8     4.4    999.0   0.00
 239    2:50    0.0    62   74.0     1    329.1     3.2    999.0   0.00
 239    3:00    0.0    62   75.0     1    328.7     3.2    999.0   0.00
 239    3:10    0.0    62   73.0     1    329.1     4.4    999.0   0.00
 239    3:20    0.0    62   73.3     0    328.7     3.2    999.0   0.00
 239    3:30    0.0    62   73.9     0    328.7     2.7    999.0   0.00
 239    3:40    0.0    61   74.1     0    328.4     2.1    999.0   0.00
 239    3:50    0.0    60   75.0     0      0.0     0.0    999.0   0.00
 239    4:00    0.0    60   75.9     0    328.3     1.0    999.0   0.00
 239    4:10    0.0    59   76.6     0    329.3     2.1    999.0   0.00
 239    4:20    0.0    59   76.6     0    329.0     1.6    999.0   0.00
 239    4:30    0.0    59   75.7     0    328.6     1.6    999.0   0.00
 239    4:40    0.0    59   75.0     0    327.6     2.1    999.0   0.00
 239    4:50    0.0    59   75.4     0    330.7     1.6    999.0   0.00
 239    5:00    0.0    58   75.9     0      0.0     0.0    999.0   0.00
 239    5:10    0.3    58   76.4     0    327.0     2.1    999.0   0.00
 239    5:20    1.5    58   75.8     0    328.1     2.1    999.0   0.00
 239    5:30    4.3    58   76.4     0    326.9     1.6    999.0   0.00
 239    5:40    7.9    58   77.2     0      0.0     0.0    999.0   0.00
 239    5:50   14.5    59   76.8     0    326.3     2.1    999.0   0.00
 239    6:00   22.5    60   75.6     1    326.2     3.8    999.0   0.00
 239    6:10   26.1    63   72.4     1    329.5     3.2    999.0   0.00
 239    6:20   33.4    66   66.1     1    327.9     3.2    999.0   0.00
 239    6:30   94.8    69   61.5     2    327.7     4.4    999.0   0.00
 239    6:40  125.2    71   58.4     1    328.6     2.7    999.0   0.00
 239    6:50  146.4    73   55.2     0    331.4     2.7    999.0   0.00
 239    7:00  168.7    76   50.6     1    332.0     3.2    999.0   0.00
 239    7:10  190.3    78   47.6     0    337.5     1.0    999.0   0.00
 239    7:20  212.0    81   43.1     0      0.0     0.0    999.0   0.00
 239    7:30  233.6    84   38.7     0      0.0     0.0    999.0   0.00
 239    7:40  255.3    86   34.9     2    346.6     4.9    999.0   0.00
 239    7:50  277.2    86   37.8     3    352.3     7.2    999.0   0.00
 239    8:00  297.6    82   44.5     5    357.4     8.8    999.0   0.00
 239    8:10  318.3    83   45.8     5      1.6     8.3    999.0   0.00
 239    8:20  338.7    83   47.3     4      4.7     7.2    999.0   0.00
 239    8:30  358.7    84   45.0     4      7.2     6.6    999.0   0.00
 239    8:40  378.1    86   43.6     4      9.7     7.7    999.0   0.00
 239    8:50  397.4    85   43.7     5     12.7     7.2    999.0   0.00
 239    9:00  415.9    86   45.0     4     16.3     6.6    999.0   0.00
 239    9:10  433.3    87   43.9     4     19.0     7.2    999.0   0.00
 239    9:20  449.2    86   51.3     6     21.4     9.4    999.0   0.00
 239    9:30  464.7    85   50.9     6     22.3     9.4    999.0   0.00
 239    9:40  480.0    86   48.2     5     21.8     8.3    999.0   0.00
 239    9:50  495.1    88   44.7     4     21.2     8.3    999.0   0.00
 239   10:00  508.3    88   43.6     4     20.8     8.3    999.0   0.00
 239   10:10  520.2    89   44.4     5     21.0     8.8    999.0   0.00
 239   10:20  532.4    89   45.8     5     21.9     8.8    999.0   0.00
 239   10:30  543.8    89   45.4     5     22.9     7.7    999.0   0.00
 239   10:40  553.5    90   45.8     5     23.7    10.0    999.0   0.00
 239   10:50  561.1    88   49.8     6     24.4     9.4    999.0   0.00
 239   11:00  567.7    88   50.7     5     24.6    10.0    999.0   0.00
 239   11:10  574.5    88   49.3     5     24.0     8.8    999.0   0.00
 239   11:20  579.6    88   51.3     6     23.7     8.8    999.0   0.00
 239   11:30  582.7    87   53.3     6     23.4    10.5    999.0   0.00
 239   11:40  585.1    88   51.1     5     22.7     8.3    999.0   0.00
 239   11:50  588.7    90   50.6     5     22.2     8.8    999.0   0.00
 239   12:00  589.7    91   47.9     4     22.0     9.4    999.0   0.00
 239   12:10  590.6    92   45.6     6     23.8    10.0    999.0   0.00
 239   12:20  589.2    90   46.7     7     23.6    12.2    999.0   0.00
 239   12:30  586.1    90   48.5     6     23.6    11.6    999.0   0.00
 239   12:40  581.8    90   46.9     5     23.5    11.1    999.0   0.00
 239   12:50  577.0    92   43.6     5     23.3     9.4    999.0   0.00
 239   13:00  571.3    92   42.6     7     23.1    11.6    999.0   0.00
 239   13:10  564.9    92   40.0     6     23.3     9.4    999.0   0.00
 239   13:20  556.5    92   40.5     7     23.6    12.2    999.0   0.00
 239   13:30  547.1    91   40.3     7     24.2    12.8    999.0   0.00
 239   13:40  536.1    91   41.3     6     24.9    10.5    999.0   0.00
 239   13:50  524.5    90   42.5     6     25.9    12.8    999.0   0.00
 239   14:00  511.8    89   41.3     6     26.7    11.1    999.0   0.00
 239   14:10  498.1    88   40.0     6     27.0    10.5    999.0   0.00
 239   14:20  483.9    90   38.7     6     27.2    10.0    999.0   0.00
 239   14:30  468.6    90   38.9     6     27.9    11.1    999.0   0.00
 239   14:40  452.0    89   40.1     6     29.0    10.0    999.0   0.00
 239   14:50  434.6    88   40.5     6     29.7    11.6    999.0   0.00
 239   15:00  416.1    86   43.5     5     30.3     9.4    999.0   0.00
 239   15:10  397.6    86   43.5     5     29.9     8.8    999.0   0.00
 239   15:20  377.8    86   45.5     6     30.0     9.4    999.0   0.00
 239   15:30  358.2    85   46.2     5     30.0     9.4    999.0   0.00
 239   15:40  338.3    85   44.3     5     29.1    10.0    999.0   0.00
 239   15:50  317.3    85   43.0     5     28.2     8.8    999.0   0.00
 239   16:00  295.8    85   40.7     5     27.0     9.4    999.0   0.00
 239   16:10  273.9    84   42.7     6     25.8     9.4    999.0   0.00
 239   16:20  251.9    82   46.7     5     24.3     9.4    999.0   0.00
 239   16:30  230.1    82   48.0     5     22.0     8.8    999.0   0.00
 239   16:40  207.4    82   47.7     5     20.1     7.2    999.0   0.00
 239   16:50  183.7    82   46.3     4     18.1     7.2    999.0   0.00
 239   17:00  162.3    83   46.1     3     15.9     6.6    999.0   0.00
 239   17:10  138.3    82   47.7     4     14.3     6.6    999.0   0.00
 239   17:20  119.1    81   48.5     4     12.8     6.6    999.0   0.00
 239   17:30   99.8    81   49.5     3     11.4     5.5    999.0   0.00
 239   17:40   70.4    81   51.3     2      9.9     4.9    999.0   0.00
 239   17:50   45.2    80   53.3     1      7.9     3.2    999.0   0.00
 239   18:00   26.1    79   54.3     0      6.0     2.1    999.0   0.00
 239   18:10   13.3    78   54.4     0      5.9     2.1    999.0   0.00
 239   18:20    5.2    76   56.7     0      0.0     0.0    999.0   0.00
 239   18:30    2.1    75   57.1     0      0.0     0.0    999.0   0.00
 239   18:40    0.4    74   55.4     0      0.2     2.1    999.0   0.00
 239   18:50    0.0    73   54.5     0    359.0     2.1    999.0   0.00
 239   19:00    0.0    72   53.4     0    356.8     1.0    999.0   0.00
 239   19:10    0.0    72   53.3     0    357.3     1.6    999.0   0.00
 239   19:20    0.0    71   52.6     0    355.9     2.1    999.0   0.00
 239   19:30    0.0    70   54.9     0    354.1     2.7    999.0   0.00
 239   19:40    0.0    69   55.4     0    351.1     1.6    999.0   0.00
 239   19:50    0.0    69   56.2     0    349.6     2.1    999.0   0.00
 239   20:00    0.0    68   56.0     0    350.9     1.6    999.0   0.00
 239   20:10    0.0    68   56.1     0      0.0     0.0    999.0   0.00
 239   20:20    0.0    67   56.4     0    347.3     2.1    999.0   0.00
 239   20:30    0.0    67   56.3     1    346.1     3.8    999.0   0.00
 239   20:40    0.0    68   54.2     2    345.6     4.9    999.0   0.00
 239   20:50    0.0    69   53.7     1    345.2     3.8    999.0   0.00
 239   21:00    0.0    68   55.1     1    344.1     3.2    999.0   0.00
 239   21:10    0.0    69   55.3     1    343.9     3.8    999.0   0.00
 239   21:20    0.0    68   56.4     0    343.1     2.7    999.0   0.00
 239   21:30    0.0    68   57.0     0    346.2     2.7    999.0   0.00
 239   21:40    0.0    68   58.1     1    342.1     2.7    999.0   0.00
 239   21:50    0.0    68   57.8     1    342.1     3.8    999.0   0.00
 239   22:00    0.0    68   59.2     2    341.1     4.4    999.0   0.00
 239   22:10    0.0    69   59.6     0    341.3     2.7    999.0   0.00
 239   22:20    0.0    68   61.0     0    340.5     2.7    999.0   0.00
 239   22:30    0.0    67   62.3     0    340.1     2.7    999.0   0.00
 239   22:40    0.0    68   61.5     2    340.3     3.8    999.0   0.00
 239   22:50    0.0    68   61.7     0    340.5     2.1    999.0   0.00
 239   23:00    0.0    67   62.8     1    339.4     3.8    999.0   0.00
 239   23:10    0.0    68   61.8     2    340.0     4.4    999.0   0.00
 239   23:20    0.0    67   61.6     0    339.5     3.2    999.0   0.00
 239   23:30    0.0    67   61.8     0    338.9     2.1    999.0   0.00
 239   23:40    0.0    66   62.5     0    338.7     2.7    999.0   0.00
 239   23:50    0.0    66   62.5     0    338.4     1.0    999.0   0.00
 240    0:00    0.0    66   63.2     0    338.4     3.2    999.0   0.00
 240    0:10    0.0    66   63.8     1    342.3     2.7    999.0   0.00
 240    0:20    0.0    66   63.0     0    341.5     2.1    999.0   0.00
 240    0:30    0.0    66   63.6     1    338.2     3.2    999.0   0.00
 240    0:40    0.0    67   61.8     0    341.3     2.7    999.0   0.00
 240    0:50    0.0    66   62.9     0    337.3     2.1    999.0   0.00
 240    1:00    0.0    65   64.0     0    337.0     1.6    999.0   0.00
 240    1:10    0.0    65   64.7     0    337.1     2.1    999.0   0.00
 240    1:20    0.0    64   66.1     1    337.1     2.1    999.0   0.00
 240    1:30    0.0    64   65.6     0    336.1     2.1    999.0   0.00
 240    1:40    0.0    64   66.0     0    335.9     2.7    999.0   0.00
 240    1:50    0.0    63   67.1     0    336.6     2.1    999.0   0.00

Return to Hayfield, Middle Canyon graphs page.


Western Regional Climate Center,wrcc@dri.edu